sensor_id;sensor_type;location;lat;lon;timestamp;pressure;altitude;pressure_sealevel;temperature;humidity
53715;BME280;39608;55.630;37.864;2023-06-04T00:00:42;99658.69;;;9.57;59.02
53715;BME280;39608;55.630;37.864;2023-06-04T00:05:45;99653.59;;;9.50;58.73
53715;BME280;39608;55.630;37.864;2023-06-04T00:10:47;99665.47;;;9.54;58.55
53715;BME280;39608;55.630;37.864;2023-06-04T00:15:50;99677.09;;;9.55;58.39
53715;BME280;39608;55.630;37.864;2023-06-04T00:20:52;99672.53;;;9.50;58.61
53715;BME280;39608;55.630;37.864;2023-06-04T00:25:54;99672.81;;;9.49;58.29
53715;BME280;39608;55.630;37.864;2023-06-04T00:30:58;99675.53;;;9.49;58.29
53715;BME280;39608;55.630;37.864;2023-06-04T00:36:00;99679.06;;;9.44;58.28
53715;BME280;39608;55.630;37.864;2023-06-04T00:41:02;99669.63;;;9.41;58.08
53715;BME280;39608;55.630;37.864;2023-06-04T00:46:06;99686.41;;;9.44;57.76
53715;BME280;39608;55.630;37.864;2023-06-04T00:51:08;99683.72;;;9.38;57.73
53715;BME280;39608;55.630;37.864;2023-06-04T00:56:10;99693.75;;;9.38;58.38
53715;BME280;39608;55.630;37.864;2023-06-04T01:01:20;99679.44;;;9.32;57.80
53715;BME280;39608;55.630;37.864;2023-06-04T01:06:31;99680.53;;;9.31;57.59
53715;BME280;39608;55.630;37.864;2023-06-04T01:11:37;99695.13;;;9.30;57.89
53715;BME280;39608;55.630;37.864;2023-06-04T01:16:45;99699.72;;;9.35;57.60
53715;BME280;39608;55.630;37.864;2023-06-04T01:21:50;99708.94;;;9.34;57.74
53715;BME280;39608;55.630;37.864;2023-06-04T01:26:54;99715.47;;;9.28;57.85
53715;BME280;39608;55.630;37.864;2023-06-04T01:31:59;99720.06;;;9.27;57.87
53715;BME280;39608;55.630;37.864;2023-06-04T01:37:01;99720.38;;;9.20;58.59
53715;BME280;39608;55.630;37.864;2023-06-04T01:42:05;99723.63;;;9.22;58.17
53715;BME280;39608;55.630;37.864;2023-06-04T01:47:08;99730.13;;;9.21;58.13
53715;BME280;39608;55.630;37.864;2023-06-04T01:52:10;99741.78;;;9.22;58.33
53715;BME280;39608;55.630;37.864;2023-06-04T01:57:12;99742.78;;;9.26;58.17
53715;BME280;39608;55.630;37.864;2023-06-04T02:02:16;99745.47;;;9.31;58.29
53715;BME280;39608;55.630;37.864;2023-06-04T02:07:19;99752.53;;;9.27;58.08
53715;BME280;39608;55.630;37.864;2023-06-04T02:12:22;99760.63;;;9.32;58.25
53715;BME280;39608;55.630;37.864;2023-06-04T02:17:25;99761.69;;;9.36;58.16
53715;BME280;39608;55.630;37.864;2023-06-04T02:22:27;99766.53;;;9.39;57.79
53715;BME280;39608;55.630;37.864;2023-06-04T02:27:30;99763.84;;;9.39;57.71
53715;BME280;39608;55.630;37.864;2023-06-04T02:32:33;99771.38;;;9.48;57.70
53715;BME280;39608;55.630;37.864;2023-06-04T02:37:36;99783.81;;;9.49;57.50
53715;BME280;39608;55.630;37.864;2023-06-04T02:42:38;99787.31;;;9.49;57.60
53715;BME280;39608;55.630;37.864;2023-06-04T02:47:42;99804.81;;;9.67;57.49
53715;BME280;39608;55.630;37.864;2023-06-04T02:52:44;99810.69;;;9.80;57.38
53715;BME280;39608;55.630;37.864;2023-06-04T02:57:46;99810.69;;;9.80;57.35
53715;BME280;39608;55.630;37.864;2023-06-04T03:02:49;99824.22;;;9.80;58.09
53715;BME280;39608;55.630;37.864;2023-06-04T03:07:51;99829.94;;;9.78;57.87
53715;BME280;39608;55.630;37.864;2023-06-04T03:12:53;99817.66;;;9.86;57.97
53715;BME280;39608;55.630;37.864;2023-06-04T03:17:57;99840.00;;;10.07;57.77
53715;BME280;39608;55.630;37.864;2023-06-04T03:23:00;99853.78;;;10.16;57.42
53715;BME280;39608;55.630;37.864;2023-06-04T03:28:02;99854.78;;;10.20;57.57
53715;BME280;39608;55.630;37.864;2023-06-04T03:33:05;99873.22;;;10.23;56.86
53715;BME280;39608;55.630;37.864;2023-06-04T03:38:07;99871.69;;;10.12;57.39
53715;BME280;39608;55.630;37.864;2023-06-04T03:43:10;99886.84;;;10.13;57.44
53715;BME280;39608;55.630;37.864;2023-06-04T03:48:14;99879.81;;;10.12;57.47
53715;BME280;39608;55.630;37.864;2023-06-04T03:53:16;99884.13;;;10.13;57.34
53715;BME280;39608;55.630;37.864;2023-06-04T03:58:18;99886.78;;;10.23;56.98
53715;BME280;39608;55.630;37.864;2023-06-04T04:03:23;99893.75;;;10.34;57.76
53715;BME280;39608;55.630;37.864;2023-06-04T04:08:25;99885.50;;;10.50;57.23
53715;BME280;39608;55.630;37.864;2023-06-04T04:13:32;99893.97;;;10.72;57.00
53715;BME280;39608;55.630;37.864;2023-06-04T04:18:35;99891.09;;;10.88;56.81
53715;BME280;39608;55.630;37.864;2023-06-04T04:23:38;99901.28;;;11.01;56.43
53715;BME280;39608;55.630;37.864;2023-06-04T04:28:41;99911.13;;;11.16;56.51
53715;BME280;39608;55.630;37.864;2023-06-04T04:33:45;99902.25;;;11.35;55.63
53715;BME280;39608;55.630;37.864;2023-06-04T04:38:48;99902.63;;;11.47;55.62
53715;BME280;39608;55.630;37.864;2023-06-04T04:44:02;99907.44;;;11.74;54.93
53715;BME280;39608;55.630;37.864;2023-06-04T04:49:06;99914.84;;;11.88;54.97
53715;BME280;39608;55.630;37.864;2023-06-04T04:54:08;99915.84;;;11.97;54.32
53715;BME280;39608;55.630;37.864;2023-06-04T04:59:10;99909.69;;;12.10;54.40
53715;BME280;39608;55.630;37.864;2023-06-04T05:04:14;99914.00;;;12.11;53.78
53715;BME280;39608;55.630;37.864;2023-06-04T05:09:16;99919.00;;;12.04;54.08
53715;BME280;39608;55.630;37.864;2023-06-04T05:14:18;99910.25;;;12.07;53.65
53715;BME280;39608;55.630;37.864;2023-06-04T05:19:22;99918.09;;;12.28;52.91
53715;BME280;39608;55.630;37.864;2023-06-04T05:24:24;99935.94;;;13.00;52.61
53715;BME280;39608;55.630;37.864;2023-06-04T05:29:26;99935.13;;;14.19;51.30
53715;BME280;39608;55.630;37.864;2023-06-04T05:34:30;99935.13;;;15.19;49.85
53715;BME280;39608;55.630;37.864;2023-06-04T05:39:33;99933.56;;;15.84;48.86
53715;BME280;39608;55.630;37.864;2023-06-04T05:44:35;99931.00;;;16.14;47.81
53715;BME280;39608;55.630;37.864;2023-06-04T05:49:39;99937.66;;;16.96;46.99
53715;BME280;39608;55.630;37.864;2023-06-04T05:54:41;99933.84;;;16.62;44.91
53715;BME280;39608;55.630;37.864;2023-06-04T05:59:43;99934.06;;;16.39;44.91
53715;BME280;39608;55.630;37.864;2023-06-04T06:04:46;99937.44;;;16.18;45.06
53715;BME280;39608;55.630;37.864;2023-06-04T06:09:48;99940.34;;;15.38;45.91
53715;BME280;39608;55.630;37.864;2023-06-04T06:14:51;99943.00;;;15.20;45.89
53715;BME280;39608;55.630;37.864;2023-06-04T06:19:54;99943.84;;;15.96;44.81
53715;BME280;39608;55.630;37.864;2023-06-04T06:24:56;99949.34;;;16.22;43.53
53715;BME280;39608;55.630;37.864;2023-06-04T06:30:00;99947.97;;;16.99;42.84
53715;BME280;39608;55.630;37.864;2023-06-04T06:35:06;99948.38;;;16.45;42.08
53715;BME280;39608;55.630;37.864;2023-06-04T06:40:09;99950.31;;;16.44;41.95
53715;BME280;39608;55.630;37.864;2023-06-04T06:45:12;99952.22;;;16.61;40.70
53715;BME280;39608;55.630;37.864;2023-06-04T06:50:15;99943.41;;;17.12;40.08
53715;BME280;39608;55.630;37.864;2023-06-04T06:55:17;99952.25;;;17.17;39.39
53715;BME280;39608;55.630;37.864;2023-06-04T07:00:20;99950.69;;;17.07;39.51
53715;BME280;39608;55.630;37.864;2023-06-04T07:05:23;99952.03;;;16.75;40.48
53715;BME280;39608;55.630;37.864;2023-06-04T07:10:25;99953.38;;;17.16;38.40
53715;BME280;39608;55.630;37.864;2023-06-04T07:15:28;99963.06;;;17.82;38.09
53715;BME280;39608;55.630;37.864;2023-06-04T07:20:31;99960.25;;;18.00;37.65
53715;BME280;39608;55.630;37.864;2023-06-04T07:25:33;99973.78;;;18.26;36.79
53715;BME280;39608;55.630;37.864;2023-06-04T07:30:35;99960.19;;;17.49;37.61
53715;BME280;39608;55.630;37.864;2023-06-04T07:35:39;99956.22;;;16.72;38.71
53715;BME280;39608;55.630;37.864;2023-06-04T07:40:41;99965.63;;;17.87;36.90
53715;BME280;39608;55.630;37.864;2023-06-04T07:45:43;99974.09;;;18.45;35.17
53715;BME280;39608;55.630;37.864;2023-06-04T07:50:46;99961.22;;;18.58;35.60
53715;BME280;39608;55.630;37.864;2023-06-04T07:55:48;99957.03;;;19.19;34.16
53715;BME280;39608;55.630;37.864;2023-06-04T08:00:51;99949.03;;;19.88;33.93
53715;BME280;39608;55.630;37.864;2023-06-04T08:05:57;99962.22;;;19.82;32.42
53715;BME280;39608;55.630;37.864;2023-06-04T08:10:59;99963.28;;;18.61;33.66
53715;BME280;39608;55.630;37.864;2023-06-04T08:16:01;99966.25;;;17.24;35.59
53715;BME280;39608;55.630;37.864;2023-06-04T08:21:26;99966.09;;;16.47;36.87
53715;BME280;39608;55.630;37.864;2023-06-04T08:26:47;99964.00;;;16.09;36.50
53715;BME280;39608;55.630;37.864;2023-06-04T08:31:55;99974.13;;;15.91;37.68
53715;BME280;39608;55.630;37.864;2023-06-04T08:37:02;99967.94;;;15.77;38.17
53715;BME280;39608;55.630;37.864;2023-06-04T08:42:06;99966.38;;;15.84;37.78
53715;BME280;39608;55.630;37.864;2023-06-04T08:47:12;99970.78;;;16.47;37.16
53715;BME280;39608;55.630;37.864;2023-06-04T08:52:18;99980.13;;;18.18;34.53
53715;BME280;39608;55.630;37.864;2023-06-04T08:57:22;99976.03;;;18.03;33.37
53715;BME280;39608;55.630;37.864;2023-06-04T09:02:27;99974.81;;;17.61;32.21
53715;BME280;39608;55.630;37.864;2023-06-04T09:07:30;99983.09;;;16.97;32.07
53715;BME280;39608;55.630;37.864;2023-06-04T09:12:35;99981.69;;;16.64;33.50
53715;BME280;39608;55.630;37.864;2023-06-04T09:17:38;99971.34;;;16.87;33.69
53715;BME280;39608;55.630;37.864;2023-06-04T09:22:41;99958.41;;;17.83;32.53
53715;BME280;39608;55.630;37.864;2023-06-04T09:27:43;99971.22;;;18.42;32.15
53715;BME280;39608;55.630;37.864;2023-06-04T09:32:45;99972.69;;;17.28;32.76
53715;BME280;39608;55.630;37.864;2023-06-04T09:37:55;99980.09;;;16.72;34.06
53715;BME280;39608;55.630;37.864;2023-06-04T09:42:58;99979.59;;;16.00;35.44
53715;BME280;39608;55.630;37.864;2023-06-04T09:48:01;99987.66;;;16.05;35.58
53715;BME280;39608;55.630;37.864;2023-06-04T09:53:14;99991.38;;;16.27;34.59
53715;BME280;39608;55.630;37.864;2023-06-04T09:58:16;99988.66;;;16.44;34.53
53715;BME280;39608;55.630;37.864;2023-06-04T10:03:20;99981.72;;;16.55;33.24
53715;BME280;39608;55.630;37.864;2023-06-04T10:08:26;99982.97;;;16.67;33.26
53715;BME280;39608;55.630;37.864;2023-06-04T10:13:31;99986.50;;;16.85;33.21
53715;BME280;39608;55.630;37.864;2023-06-04T10:18:37;99979.00;;;17.20;32.81
53715;BME280;39608;55.630;37.864;2023-06-04T10:23:40;99989.16;;;17.28;33.39
53715;BME280;39608;55.630;37.864;2023-06-04T10:28:45;99989.94;;;17.38;32.38
53715;BME280;39608;55.630;37.864;2023-06-04T10:33:48;99993.03;;;17.19;32.53
53715;BME280;39608;55.630;37.864;2023-06-04T10:38:52;99980.59;;;17.69;32.42
53715;BME280;39608;55.630;37.864;2023-06-04T10:44:01;99973.59;;;18.98;32.02
53715;BME280;39608;55.630;37.864;2023-06-04T10:49:03;99981.63;;;20.55;27.68
53715;BME280;39608;55.630;37.864;2023-06-04T10:54:07;99975.53;;;20.90;27.48
53715;BME280;39608;55.630;37.864;2023-06-04T10:59:17;99973.22;;;21.40;27.31
53715;BME280;39608;55.630;37.864;2023-06-04T11:04:20;99973.94;;;20.61;27.47
53715;BME280;39608;55.630;37.864;2023-06-04T11:09:24;99973.03;;;20.57;27.73
53715;BME280;39608;55.630;37.864;2023-06-04T11:14:27;99978.84;;;20.67;27.47
53715;BME280;39608;55.630;37.864;2023-06-04T11:19:35;99970.00;;;19.93;28.93
53715;BME280;39608;55.630;37.864;2023-06-04T11:24:38;99981.94;;;18.89;29.85
53715;BME280;39608;55.630;37.864;2023-06-04T11:29:40;99972.28;;;18.28;30.52
53715;BME280;39608;55.630;37.864;2023-06-04T11:34:43;99982.47;;;18.28;30.77
53715;BME280;39608;55.630;37.864;2023-06-04T11:39:46;99981.44;;;18.11;30.71
53715;BME280;39608;55.630;37.864;2023-06-04T11:44:48;99980.81;;;17.85;31.74
53715;BME280;39608;55.630;37.864;2023-06-04T11:49:54;99988.41;;;18.09;31.48
53715;BME280;39608;55.630;37.864;2023-06-04T11:54:58;99987.50;;;18.47;31.32
53715;BME280;39608;55.630;37.864;2023-06-04T12:00:00;99981.25;;;19.63;28.50
53715;BME280;39608;55.630;37.864;2023-06-04T12:05:13;99985.47;;;19.97;28.87
53715;BME280;39608;55.630;37.864;2023-06-04T12:10:16;99984.34;;;18.91;29.09
53715;BME280;39608;55.630;37.864;2023-06-04T12:15:19;99995.84;;;18.29;30.17
53715;BME280;39608;55.630;37.864;2023-06-04T12:20:33;99999.81;;;18.41;30.85
53715;BME280;39608;55.630;37.864;2023-06-04T12:25:37;99994.19;;;17.95;30.41
53715;BME280;39608;55.630;37.864;2023-06-04T12:30:40;99984.75;;;18.05;30.41
53715;BME280;39608;55.630;37.864;2023-06-04T12:35:42;99983.03;;;20.08;28.13
53715;BME280;39608;55.630;37.864;2023-06-04T12:40:46;99992.41;;;20.60;27.64
53715;BME280;39608;55.630;37.864;2023-06-04T12:45:51;99988.69;;;19.38;28.48
53715;BME280;39608;55.630;37.864;2023-06-04T12:50:53;99985.88;;;18.46;29.47
53715;BME280;39608;55.630;37.864;2023-06-04T12:55:59;99988.28;;;18.05;30.51
53715;BME280;39608;55.630;37.864;2023-06-04T13:01:01;99985.63;;;17.88;30.55
53715;BME280;39608;55.630;37.864;2023-06-04T13:06:03;99972.72;;;17.88;31.18
53715;BME280;39608;55.630;37.864;2023-06-04T13:11:07;99978.09;;;18.06;30.83
53715;BME280;39608;55.630;37.864;2023-06-04T13:16:10;99978.06;;;18.36;30.52
53715;BME280;39608;55.630;37.864;2023-06-04T13:21:12;99963.91;;;19.62;28.95
53715;BME280;39608;55.630;37.864;2023-06-04T13:26:16;99970.13;;;20.37;28.10
53715;BME280;39608;55.630;37.864;2023-06-04T13:31:18;99979.84;;;19.57;27.72
53715;BME280;39608;55.630;37.864;2023-06-04T13:36:20;99968.25;;;18.47;29.10
53715;BME280;39608;55.630;37.864;2023-06-04T13:41:23;99973.69;;;17.84;29.84
53715;BME280;39608;55.630;37.864;2023-06-04T13:46:25;99964.22;;;18.66;29.42
53715;BME280;39608;55.630;37.864;2023-06-04T13:51:27;99963.00;;;20.64;27.80
53715;BME280;39608;55.630;37.864;2023-06-04T13:56:32;99970.50;;;20.51;27.04
53715;BME280;39608;55.630;37.864;2023-06-04T14:01:34;99978.66;;;18.96;28.69
53715;BME280;39608;55.630;37.864;2023-06-04T14:06:36;99979.59;;;18.45;29.16
53715;BME280;39608;55.630;37.864;2023-06-04T14:11:42;99978.50;;;17.95;29.95
53715;BME280;39608;55.630;37.864;2023-06-04T14:16:44;99971.91;;;17.28;31.12
53715;BME280;39608;55.630;37.864;2023-06-04T14:21:46;99987.97;;;17.38;31.09
53715;BME280;39608;55.630;37.864;2023-06-04T14:26:50;99977.78;;;18.83;29.88
53715;BME280;39608;55.630;37.864;2023-06-04T14:31:53;99969.75;;;20.39;27.87
53715;BME280;39608;55.630;37.864;2023-06-04T14:36:55;99971.59;;;20.91;27.06
53715;BME280;39608;55.630;37.864;2023-06-04T14:42:01;99951.53;;;20.62;27.58
53715;BME280;39608;55.630;37.864;2023-06-04T14:47:04;99960.47;;;20.03;27.66
53715;BME280;39608;55.630;37.864;2023-06-04T14:52:06;99958.44;;;19.38;28.35
53715;BME280;39608;55.630;37.864;2023-06-04T14:57:11;99962.22;;;18.54;29.20
53715;BME280;39608;55.630;37.864;2023-06-04T15:02:13;99950.88;;;17.71;30.03
53715;BME280;39608;55.630;37.864;2023-06-04T15:07:19;99950.09;;;17.40;30.42
53715;BME280;39608;55.630;37.864;2023-06-04T15:12:23;99943.38;;;17.20;30.87
53715;BME280;39608;55.630;37.864;2023-06-04T15:17:25;99926.50;;;17.09;30.66
53715;BME280;39608;55.630;37.864;2023-06-04T15:22:27;99942.25;;;17.21;30.44
53715;BME280;39608;55.630;37.864;2023-06-04T15:27:31;99936.63;;;17.18;30.59
53715;BME280;39608;55.630;37.864;2023-06-04T15:32:33;99941.97;;;17.14;30.85
53715;BME280;39608;55.630;37.864;2023-06-04T15:37:35;99932.84;;;16.92;30.88
53715;BME280;39608;55.630;37.864;2023-06-04T15:42:39;99937.97;;;16.94;31.16
53715;BME280;39608;55.630;37.864;2023-06-04T15:47:41;99941.22;;;16.87;30.98
53715;BME280;39608;55.630;37.864;2023-06-04T15:52:44;99916.75;;;16.65;31.46
53715;BME280;39608;55.630;37.864;2023-06-04T15:57:47;99941.56;;;16.68;31.96
53715;BME280;39608;55.630;37.864;2023-06-04T16:02:49;99932.75;;;16.54;32.21
53715;BME280;39608;55.630;37.864;2023-06-04T16:07:52;99939.03;;;16.46;32.58
53715;BME280;39608;55.630;37.864;2023-06-04T16:12:55;99934.84;;;16.48;32.70
53715;BME280;39608;55.630;37.864;2023-06-04T16:17:57;99928.41;;;16.35;33.31
53715;BME280;39608;55.630;37.864;2023-06-04T16:22:59;99934.50;;;16.41;33.21
53715;BME280;39608;55.630;37.864;2023-06-04T16:28:03;99934.34;;;16.55;33.42
53715;BME280;39608;55.630;37.864;2023-06-04T16:33:06;99934.34;;;16.46;33.77
53715;BME280;39608;55.630;37.864;2023-06-04T16:38:08;99925.03;;;16.21;34.38
53715;BME280;39608;55.630;37.864;2023-06-04T16:43:14;99943.22;;;16.08;34.53
53715;BME280;39608;55.630;37.864;2023-06-04T16:48:16;99941.63;;;15.89;34.62
53715;BME280;39608;55.630;37.864;2023-06-04T16:53:18;99948.19;;;15.80;34.82
53715;BME280;39608;55.630;37.864;2023-06-04T16:58:22;99925.13;;;15.72;35.20
53715;BME280;39608;55.630;37.864;2023-06-04T17:03:24;99940.47;;;15.82;35.23
53715;BME280;39608;55.630;37.864;2023-06-04T17:08:29;99937.72;;;15.82;35.11
53715;BME280;39608;55.630;37.864;2023-06-04T17:13:37;99952.22;;;15.82;35.12
53715;BME280;39608;55.630;37.864;2023-06-04T17:18:41;99929.47;;;15.64;35.31
53715;BME280;39608;55.630;37.864;2023-06-04T17:23:46;99945.22;;;15.59;35.86
53715;BME280;39608;55.630;37.864;2023-06-04T17:28:50;99942.63;;;15.45;36.08
53715;BME280;39608;55.630;37.864;2023-06-04T17:33:52;99945.78;;;15.29;36.45
53715;BME280;39608;55.630;37.864;2023-06-04T17:38:55;99934.41;;;15.04;36.61
53715;BME280;39608;55.630;37.864;2023-06-04T17:44:02;99951.59;;;15.05;36.62
53715;BME280;39608;55.630;37.864;2023-06-04T17:49:04;99947.38;;;14.90;37.01
53715;BME280;39608;55.630;37.864;2023-06-04T17:54:10;99941.47;;;14.74;37.34
53715;BME280;39608;55.630;37.864;2023-06-04T17:59:14;99964.94;;;14.75;37.80
53715;BME280;39608;55.630;37.864;2023-06-04T18:04:16;99948.59;;;14.61;38.16
53715;BME280;39608;55.630;37.864;2023-06-04T18:09:19;99953.84;;;14.58;38.35
53715;BME280;39608;55.630;37.864;2023-06-04T18:14:22;99958.31;;;14.53;38.66
53715;BME280;39608;55.630;37.864;2023-06-04T18:19:24;99960.31;;;14.39;39.13
53715;BME280;39608;55.630;37.864;2023-06-04T18:24:27;99953.13;;;14.20;39.43
53715;BME280;39608;55.630;37.864;2023-06-04T18:29:30;99941.56;;;14.01;39.70
53715;BME280;39608;55.630;37.864;2023-06-04T18:34:32;99955.91;;;13.93;39.97
53715;BME280;39608;55.630;37.864;2023-06-04T18:39:34;99957.03;;;13.78;40.19
53715;BME280;39608;55.630;37.864;2023-06-04T18:44:38;99954.75;;;13.71;40.42
53715;BME280;39608;55.630;37.864;2023-06-04T18:49:40;99964.66;;;13.67;40.50
53715;BME280;39608;55.630;37.864;2023-06-04T18:54:42;99957.78;;;13.56;41.05
53715;BME280;39608;55.630;37.864;2023-06-04T18:59:46;99954.84;;;13.52;41.47
53715;BME280;39608;55.630;37.864;2023-06-04T19:04:48;99956.97;;;13.41;41.53
53715;BME280;39608;55.630;37.864;2023-06-04T19:09:50;99954.91;;;13.33;41.65
53715;BME280;39608;55.630;37.864;2023-06-04T19:14:54;99952.81;;;13.30;42.09
53715;BME280;39608;55.630;37.864;2023-06-04T19:20:00;99951.28;;;13.24;42.12
53715;BME280;39608;55.630;37.864;2023-06-04T19:25:03;99941.41;;;13.14;42.12
53715;BME280;39608;55.630;37.864;2023-06-04T19:30:08;99948.88;;;13.08;42.55
53715;BME280;39608;55.630;37.864;2023-06-04T19:35:11;99943.59;;;12.98;42.64
53715;BME280;39608;55.630;37.864;2023-06-04T19:40:13;99950.84;;;12.89;42.98
53715;BME280;39608;55.630;37.864;2023-06-04T19:45:19;99939.09;;;12.74;43.29
53715;BME280;39608;55.630;37.864;2023-06-04T19:50:21;99941.31;;;12.72;43.55
53715;BME280;39608;55.630;37.864;2023-06-04T19:55:24;99943.31;;;12.66;43.73
53715;BME280;39608;55.630;37.864;2023-06-04T20:00:27;99940.91;;;12.65;44.01
53715;BME280;39608;55.630;37.864;2023-06-04T20:05:30;99934.53;;;12.56;43.90
53715;BME280;39608;55.630;37.864;2023-06-04T20:10:32;99943.72;;;12.60;43.72
53715;BME280;39608;55.630;37.864;2023-06-04T20:15:35;99923.13;;;12.54;43.95
53715;BME280;39608;55.630;37.864;2023-06-04T20:20:38;99933.19;;;12.53;43.96
53715;BME280;39608;55.630;37.864;2023-06-04T20:25:40;99927.88;;;12.48;44.07
53715;BME280;39608;55.630;37.864;2023-06-04T20:30:43;99932.56;;;12.42;44.56
53715;BME280;39608;55.630;37.864;2023-06-04T20:35:45;99927.22;;;12.37;44.50
53715;BME280;39608;55.630;37.864;2023-06-04T20:40:47;99918.19;;;12.23;44.55
53715;BME280;39608;55.630;37.864;2023-06-04T20:45:51;99931.25;;;12.21;45.04
53715;BME280;39608;55.630;37.864;2023-06-04T20:50:55;99927.81;;;12.15;45.24
53715;BME280;39608;55.630;37.864;2023-06-04T20:55:58;99924.13;;;12.06;44.99
53715;BME280;39608;55.630;37.864;2023-06-04T21:01:02;99917.56;;;11.88;45.31
53715;BME280;39608;55.630;37.864;2023-06-04T21:06:04;99924.19;;;11.81;45.86
53715;BME280;39608;55.630;37.864;2023-06-04T21:11:06;99919.53;;;11.63;46.17
53715;BME280;39608;55.630;37.864;2023-06-04T21:16:09;99924.16;;;11.62;46.69
53715;BME280;39608;55.630;37.864;2023-06-04T21:21:11;99904.03;;;11.44;46.58
53715;BME280;39608;55.630;37.864;2023-06-04T21:26:13;99909.53;;;11.39;46.68
53715;BME280;39608;55.630;37.864;2023-06-04T21:31:17;99903.84;;;11.36;46.97
53715;BME280;39608;55.630;37.864;2023-06-04T21:36:19;99916.69;;;11.30;47.14
53715;BME280;39608;55.630;37.864;2023-06-04T21:41:21;99918.13;;;11.22;47.42
53715;BME280;39608;55.630;37.864;2023-06-04T21:46:25;99904.16;;;11.10;48.08
53715;BME280;39608;55.630;37.864;2023-06-04T21:51:27;99916.16;;;11.04;47.94
53715;BME280;39608;55.630;37.864;2023-06-04T21:56:29;99876.34;;;10.70;48.39
53715;BME280;39608;55.630;37.864;2023-06-04T22:01:32;99909.50;;;10.91;49.07
53715;BME280;39608;55.630;37.864;2023-06-04T22:06:34;99877.78;;;10.62;48.67
53715;BME280;39608;55.630;37.864;2023-06-04T22:11:37;99905.75;;;10.87;48.99
53715;BME280;39608;55.630;37.864;2023-06-04T22:16:40;99908.69;;;10.90;48.79
53715;BME280;39608;55.630;37.864;2023-06-04T22:21:42;99906.56;;;10.87;49.03
53715;BME280;39608;55.630;37.864;2023-06-04T22:26:44;99910.66;;;10.85;49.07
53715;BME280;39608;55.630;37.864;2023-06-04T22:31:48;99904.81;;;10.72;49.15
53715;BME280;39608;55.630;37.864;2023-06-04T22:36:50;99906.47;;;10.68;49.99
53715;BME280;39608;55.630;37.864;2023-06-04T22:41:52;99908.13;;;10.64;49.58
53715;BME280;39608;55.630;37.864;2023-06-04T22:46:56;99900.91;;;10.54;50.04
53715;BME280;39608;55.630;37.864;2023-06-04T22:51:58;99906.63;;;10.53;50.01
53715;BME280;39608;55.630;37.864;2023-06-04T22:57:00;99912.63;;;10.50;50.27
53715;BME280;39608;55.630;37.864;2023-06-04T23:02:04;99901.28;;;10.42;50.84
53715;BME280;39608;55.630;37.864;2023-06-04T23:07:06;99899.19;;;10.34;50.39
53715;BME280;39608;55.630;37.864;2023-06-04T23:12:08;99913.59;;;10.24;51.11
53715;BME280;39608;55.630;37.864;2023-06-04T23:17:12;99911.97;;;10.23;51.58
53715;BME280;39608;55.630;37.864;2023-06-04T23:22:15;99896.06;;;10.12;51.56
53715;BME280;39608;55.630;37.864;2023-06-04T23:27:19;99913.63;;;10.19;51.82
53715;BME280;39608;55.630;37.864;2023-06-04T23:32:23;99895.69;;;10.23;51.51
53715;BME280;39608;55.630;37.864;2023-06-04T23:37:25;99896.84;;;10.17;51.79
53715;BME280;39608;55.630;37.864;2023-06-04T23:42:27;99912.50;;;10.25;51.99
53715;BME280;39608;55.630;37.864;2023-06-04T23:47:30;99909.50;;;10.27;51.66
53715;BME280;39608;55.630;37.864;2023-06-04T23:52:32;99892.72;;;10.20;51.70
53715;BME280;39608;55.630;37.864;2023-06-04T23:57:35;99896.78;;;10.22;51.39
